Time;durP1;ratioP1;P1;durP2;ratioP2;P2;SDS_P1;SDS_P2;PMS_P1;PMS_P2;Temp;Humidity;BMP_temperature;BMP_pressure;BME280_temperature;BME280_humidity;BME280_pressure;Samples;Min_cycle;Max_cycle;Signal;HPM_P1;HPM_P2
2022/07/11 00:00:45;;;;;;;;;;;18.20;76.20;;;;;;5006516;28;19913;-81
2022/07/11 00:03:11;;;;;;;;;;;18.10;76.80;;;;;;5016290;28;19957;-82
2022/07/11 00:05:37;;;;;;;;;;;18.10;76.80;;;;;;5008220;28;20295;-82
2022/07/11 00:08:06;;;;;;;;;;;18.10;76.90;;;;;;5013351;28;19916;-82
2022/07/11 00:10:32;;;;;;;;;;;18.20;76.80;;;;;;5014857;28;20245;-82
2022/07/11 00:12:57;;;;;;;;;;;18.10;77.20;;;;;;5025105;28;19917;-81
2022/07/11 00:15:22;;;;;;;;;;;18.20;76.80;;;;;;5014955;28;19909;-81
2022/07/11 00:17:48;;;;;;;;;;;18.10;77.30;;;;;;5008402;28;19924;-81
2022/07/11 00:20:13;;;;;;;;;;;18.10;77.00;;;;;;5014607;28;19913;-81
2022/07/11 00:22:39;;;;;;;;;;;18.10;77.00;;;;;;5021709;28;19914;-81
2022/07/11 00:25:04;;;;;;;;;;;18.10;77.30;;;;;;5020385;28;20377;-81
2022/07/11 00:27:30;;;;;;;;;;;18.10;77.60;;;;;;5013457;28;20980;-81
2022/07/11 00:29:56;;;;;;;;;;;18.10;77.60;;;;;;5011874;28;20000;-80
2022/07/11 00:32:21;;;;;;;;;;;18.00;77.90;;;;;;5015793;28;19913;-81
2022/07/11 00:34:46;;;;;;;;;;;18.10;77.60;;;;;;5009067;28;20349;-81
2022/07/11 00:37:20;;;;;;;;;;;18.00;77.60;;;;;;5016444;28;20291;-81
2022/07/11 00:39:45;;;;;;;;;;;18.10;77.80;;;;;;5013381;28;19917;-81
2022/07/11 00:42:11;;;;;;;;;;;18.10;77.60;;;;;;5015950;28;19933;-80
2022/07/11 00:44:36;;;;;;;;;;;18.10;77.10;;;;;;5007186;28;19928;-81
2022/07/11 00:47:03;;;;;;;;;;;18.10;77.40;;;;;;5016049;28;20391;-81
2022/07/11 00:49:29;;;;;;;;;;;18.00;77.60;;;;;;5004633;28;19940;-81
2022/07/11 00:51:54;;;;;;;;;;;17.90;78.00;;;;;;5012539;28;20571;-80
2022/07/11 00:54:21;;;;;;;;;;;18.00;77.90;;;;;;5012324;28;20363;-80
2022/07/11 00:56:47;;;;;;;;;;;18.00;77.90;;;;;;5015448;28;19913;-81
2022/07/11 00:59:13;;;;;;;;;;;18.00;78.00;;;;;;5008026;28;19921;-81
2022/07/11 01:01:39;;;;;;;;;;;17.90;78.20;;;;;;5016401;28;20245;-81
2022/07/11 01:04:04;;;;;;;;;;;17.80;78.30;;;;;;5015344;28;19913;-81
2022/07/11 01:06:30;;;;;;;;;;;17.80;78.60;;;;;;5011740;28;20353;-80
2022/07/11 01:08:55;;;;;;;;;;;17.70;78.80;;;;;;5003135;28;19918;-81
2022/07/11 01:11:21;;;;;;;;;;;17.60;79.20;;;;;;5008660;28;20004;-81
2022/07/11 01:13:47;;;;;;;;;;;17.50;79.50;;;;;;5008551;28;19929;-81
2022/07/11 01:16:13;;;;;;;;;;;17.40;80.20;;;;;;5007892;28;20016;-80
2022/07/11 01:18:44;;;;;;;;;;;17.40;80.00;;;;;;5012720;28;20300;-81
2022/07/11 01:21:10;;;;;;;;;;;17.40;80.00;;;;;;5014206;28;19975;-82
2022/07/11 01:23:36;;;;;;;;;;;17.30;80.00;;;;;;5013566;28;20299;-81
2022/07/11 01:26:01;;;;;;;;;;;17.30;80.30;;;;;;5011057;28;19914;-80
2022/07/11 01:28:27;;;;;;;;;;;17.30;80.60;;;;;;5002250;28;20461;-80
2022/07/11 01:30:52;;;;;;;;;;;17.20;80.70;;;;;;5010532;28;19914;-80
2022/07/11 01:33:18;;;;;;;;;;;17.10;81.10;;;;;;5011847;28;19969;-80
2022/07/11 01:35:43;;;;;;;;;;;17.10;81.00;;;;;;5007949;28;19924;-80
2022/07/11 01:38:09;;;;;;;;;;;17.10;81.10;;;;;;5010317;28;20246;-81
2022/07/11 01:40:34;;;;;;;;;;;17.10;81.30;;;;;;5015482;28;20510;-80
2022/07/11 01:43:00;;;;;;;;;;;17.00;81.50;;;;;;5018141;28;20035;-80
2022/07/11 01:45:25;;;;;;;;;;;17.00;81.60;;;;;;5007443;28;19922;-80
2022/07/11 01:47:51;;;;;;;;;;;17.10;81.30;;;;;;5008993;28;19909;-81
2022/07/11 01:50:16;;;;;;;;;;;17.10;81.30;;;;;;5014645;28;19948;-81
2022/07/11 01:52:42;;;;;;;;;;;17.00;81.60;;;;;;5016276;28;19919;-81
2022/07/11 01:55:08;;;;;;;;;;;17.00;81.40;;;;;;5017310;28;19913;-80
2022/07/11 01:57:33;;;;;;;;;;;17.00;81.20;;;;;;5012432;28;19913;-81
2022/07/11 01:59:59;;;;;;;;;;;17.00;81.70;;;;;;5027388;28;19913;-80
2022/07/11 02:02:24;;;;;;;;;;;17.00;81.50;;;;;;5018347;28;19961;-81
2022/07/11 02:04:49;;;;;;;;;;;16.90;81.90;;;;;;5017912;28;19918;-82
2022/07/11 02:08:11;;;;;;;;;;;17.00;81.70;;;;;;5017562;28;20408;-80
2022/07/11 02:10:01;;;;;;;;;;;16.90;81.80;;;;;;5024492;28;19929;-81
2022/07/11 02:12:26;;;;;;;;;;;17.00;81.70;;;;;;5020560;28;20380;-81
2022/07/11 02:14:52;;;;;;;;;;;17.00;81.50;;;;;;5019079;28;20436;-81
2022/07/11 02:17:17;;;;;;;;;;;17.10;81.20;;;;;;5018627;28;19924;-81
2022/07/11 02:19:43;;;;;;;;;;;17.00;81.60;;;;;;5019144;28;19957;-81
2022/07/11 02:22:08;;;;;;;;;;;17.00;81.90;;;;;;5013031;28;19985;-81
2022/07/11 02:24:34;;;;;;;;;;;17.00;81.90;;;;;;5026808;28;19921;-80
2022/07/11 02:27:00;;;;;;;;;;;17.00;81.80;;;;;;5017701;28;19909;-80
2022/07/11 02:29:25;;;;;;;;;;;17.00;81.90;;;;;;5009611;28;19914;-81
2022/07/11 02:31:50;;;;;;;;;;;17.00;82.00;;;;;;5017360;28;19913;-81
2022/07/11 02:34:16;;;;;;;;;;;17.10;81.70;;;;;;5007565;28;19948;-80
2022/07/11 02:36:41;;;;;;;;;;;17.10;81.70;;;;;;5016877;28;19913;-81
2022/07/11 02:39:07;;;;;;;;;;;17.10;81.70;;;;;;5012090;28;20008;-81
2022/07/11 02:41:33;;;;;;;;;;;17.10;81.60;;;;;;5017244;28;19909;-81
2022/07/11 02:43:58;;;;;;;;;;;17.10;81.20;;;;;;5010473;28;19914;-81
2022/07/11 02:46:23;;;;;;;;;;;17.20;81.10;;;;;;5017574;28;19913;-80
2022/07/11 02:48:49;;;;;;;;;;;17.20;81.10;;;;;;5025058;28;19914;-81
2022/07/11 02:51:15;;;;;;;;;;;17.20;81.20;;;;;;5019221;28;19914;-80
2022/07/11 02:53:40;;;;;;;;;;;17.20;81.50;;;;;;5015791;28;19922;-81
2022/07/11 02:56:06;;;;;;;;;;;17.20;81.40;;;;;;5014206;28;19918;-81
2022/07/11 02:58:32;;;;;;;;;;;17.20;81.40;;;;;;5018923;28;19920;-79
2022/07/11 03:00:57;;;;;;;;;;;17.20;81.60;;;;;;5012139;28;19913;-81
2022/07/11 03:03:23;;;;;;;;;;;17.20;81.60;;;;;;5016312;28;19955;-81
2022/07/11 03:05:48;;;;;;;;;;;17.20;81.70;;;;;;5011432;28;19991;-80
2022/07/11 03:08:14;;;;;;;;;;;17.20;81.80;;;;;;5018209;28;19916;-80
2022/07/11 03:10:39;;;;;;;;;;;17.20;81.60;;;;;;5018868;28;19925;-81
2022/07/11 03:13:05;;;;;;;;;;;17.20;82.00;;;;;;5017411;28;19980;-81
2022/07/11 03:15:31;;;;;;;;;;;17.30;81.50;;;;;;5005846;28;20376;-81
2022/07/11 03:17:56;;;;;;;;;;;17.30;81.40;;;;;;5011861;28;20386;-81
2022/07/11 03:20:21;;;;;;;;;;;17.20;81.60;;;;;;5016519;28;20008;-81
2022/07/11 03:22:47;;;;;;;;;;;17.20;81.80;;;;;;5015465;28;19909;-80
2022/07/11 03:25:13;;;;;;;;;;;17.30;81.60;;;;;;5020810;28;19949;-81
2022/07/11 03:27:38;;;;;;;;;;;17.40;81.00;;;;;;5024187;28;20454;-81
2022/07/11 03:30:04;;;;;;;;;;;17.30;81.20;;;;;;5013195;28;20407;-80
2022/07/11 03:32:29;;;;;;;;;;;17.20;81.50;;;;;;5008416;28;20091;-81
2022/07/11 03:37:39;;;;;;;;;;;17.20;82.00;;;;;;5010373;28;19968;-80
2022/07/11 03:40:05;;;;;;;;;;;17.20;82.30;;;;;;5016972;28;19917;-81
2022/07/11 03:42:31;;;;;;;;;;;17.20;82.30;;;;;;5010682;28;19920;-81
2022/07/11 03:44:56;;;;;;;;;;;17.20;82.30;;;;;;5017553;28;19984;-80
2022/07/11 03:47:22;;;;;;;;;;;17.30;81.90;;;;;;5014657;28;20262;-80
2022/07/11 03:49:47;;;;;;;;;;;17.30;81.60;;;;;;5008809;28;19998;-81
2022/07/11 03:52:13;;;;;;;;;;;17.40;81.50;;;;;;5014432;28;20310;-80
2022/07/11 03:54:38;;;;;;;;;;;17.30;81.40;;;;;;5018993;28;19910;-80
2022/07/11 03:57:04;;;;;;;;;;;17.30;81.60;;;;;;5011355;28;19914;-80
2022/07/11 03:59:29;;;;;;;;;;;17.30;82.20;;;;;;5018764;28;19981;-80
2022/07/11 04:01:55;;;;;;;;;;;17.30;81.80;;;;;;5018603;28;20292;-81
2022/07/11 04:04:21;;;;;;;;;;;17.20;81.90;;;;;;5005942;28;20289;-81
2022/07/11 04:06:46;;;;;;;;;;;17.30;81.80;;;;;;5017178;28;20008;-80
2022/07/11 04:09:12;;;;;;;;;;;17.30;82.10;;;;;;5024797;28;19917;-81
2022/07/11 04:11:37;;;;;;;;;;;17.30;81.90;;;;;;5019371;28;19980;-81
2022/07/11 04:14:03;;;;;;;;;;;17.30;82.00;;;;;;5012250;28;19914;-81
2022/07/11 04:16:28;;;;;;;;;;;17.20;82.20;;;;;;5023361;28;19921;-81
2022/07/11 04:18:53;;;;;;;;;;;17.40;81.80;;;;;;5019712;28;19910;-81
2022/07/11 04:21:19;;;;;;;;;;;17.40;81.30;;;;;;5016773;28;19913;-82
2022/07/11 04:23:44;;;;;;;;;;;17.20;82.00;;;;;;5009590;28;19913;-81
2022/07/11 04:26:10;;;;;;;;;;;17.40;81.70;;;;;;5008466;28;19916;-81
2022/07/11 04:28:35;;;;;;;;;;;17.50;81.30;;;;;;5016211;28;20311;-81
2022/07/11 04:31:01;;;;;;;;;;;17.30;81.60;;;;;;5016370;28;19920;-81
2022/07/11 04:33:27;;;;;;;;;;;17.30;81.50;;;;;;5015800;28;19921;-81
2022/07/11 04:35:52;;;;;;;;;;;17.30;81.30;;;;;;5012618;28;19917;-81
2022/07/11 04:38:21;;;;;;;;;;;17.30;81.70;;;;;;5010810;28;20347;-81
2022/07/11 04:40:47;;;;;;;;;;;17.40;81.30;;;;;;5014289;28;19913;-81
2022/07/11 04:43:12;;;;;;;;;;;17.40;81.40;;;;;;5017095;28;19964;-81
2022/07/11 04:45:39;;;;;;;;;;;17.20;81.80;;;;;;5011896;28;20384;-80
2022/07/11 04:48:04;;;;;;;;;;;17.30;81.60;;;;;;5014041;28;19920;-81
2022/07/11 04:50:30;;;;;;;;;;;17.30;81.80;;;;;;5009979;28;19913;-81
2022/07/11 04:52:55;;;;;;;;;;;17.30;81.80;;;;;;5010435;28;20347;-82
2022/07/11 04:55:21;;;;;;;;;;;17.40;81.80;;;;;;5007567;28;19919;-81
2022/07/11 04:57:46;;;;;;;;;;;17.40;81.70;;;;;;5015501;28;19913;-80
2022/07/11 05:00:12;;;;;;;;;;;17.40;81.70;;;;;;5007218;28;19913;-80
2022/07/11 05:02:37;;;;;;;;;;;17.40;81.80;;;;;;5012471;28;19914;-81
2022/07/11 05:05:03;;;;;;;;;;;17.40;81.40;;;;;;5015670;28;19910;-81
2022/07/11 05:07:28;;;;;;;;;;;17.50;81.10;;;;;;5011507;28;19913;-80
2022/07/11 05:09:54;;;;;;;;;;;17.50;80.50;;;;;;5010756;28;20308;-80
2022/07/11 05:12:20;;;;;;;;;;;17.50;80.10;;;;;;5023202;28;19917;-81
2022/07/11 05:14:45;;;;;;;;;;;17.30;80.50;;;;;;5013421;28;19910;-81
2022/07/11 05:17:11;;;;;;;;;;;17.40;80.80;;;;;;5009098;28;19929;-80
2022/07/11 05:19:36;;;;;;;;;;;17.30;80.20;;;;;;5016117;28;20392;-82
2022/07/11 05:22:02;;;;;;;;;;;17.30;80.50;;;;;;5008648;28;20028;-81
2022/07/11 05:24:27;;;;;;;;;;;17.20;80.80;;;;;;5016814;28;19949;-81
2022/07/11 05:26:52;;;;;;;;;;;17.40;80.00;;;;;;5017765;28;20330;-81
2022/07/11 05:29:18;;;;;;;;;;;17.40;80.10;;;;;;5006095;28;20321;-79
2022/07/11 05:31:49;;;;;;;;;;;17.50;79.70;;;;;;5027539;28;19909;-80
2022/07/11 05:34:15;;;;;;;;;;;17.40;79.80;;;;;;5009685;28;19959;-81
2022/07/11 05:36:43;;;;;;;;;;;17.50;79.80;;;;;;5018446;28;19917;-80
2022/07/11 05:39:08;;;;;;;;;;;17.40;79.90;;;;;;5009605;28;20013;-80
2022/07/11 05:41:34;;;;;;;;;;;17.50;79.80;;;;;;5019343;28;20408;-80
2022/07/11 05:43:59;;;;;;;;;;;17.50;79.50;;;;;;5009701;28;20269;-80
2022/07/11 05:46:25;;;;;;;;;;;17.40;79.50;;;;;;5018061;28;20013;-80
2022/07/11 05:48:50;;;;;;;;;;;17.40;79.70;;;;;;5010305;28;20383;-80
2022/07/11 05:51:18;;;;;;;;;;;17.50;78.70;;;;;;5030786;28;20027;-81
2022/07/11 05:53:44;;;;;;;;;;;17.50;79.00;;;;;;5020664;28;19918;-80
2022/07/11 05:56:09;;;;;;;;;;;17.40;79.20;;;;;;5023597;28;20427;-81
2022/07/11 05:58:35;;;;;;;;;;;17.50;79.00;;;;;;5022453;28;19932;-81
2022/07/11 06:01:00;;;;;;;;;;;17.50;78.80;;;;;;5012996;28;19918;-81
2022/07/11 06:03:26;;;;;;;;;;;17.50;78.70;;;;;;5020887;28;19968;-82
2022/07/11 06:05:51;;;;;;;;;;;17.50;78.50;;;;;;5016079;28;19914;-81
2022/07/11 06:11:01;;;;;;;;;;;17.50;78.40;;;;;;5015929;28;19995;-81
2022/07/11 06:13:29;;;;;;;;;;;17.60;78.70;;;;;;5020828;28;20440;-81
2022/07/11 06:15:55;;;;;;;;;;;17.70;78.00;;;;;;5018130;28;19913;-82
2022/07/11 06:18:20;;;;;;;;;;;17.70;78.00;;;;;;5016918;28;19914;-81
2022/07/11 06:20:46;;;;;;;;;;;17.70;77.90;;;;;;5019727;28;19924;-81
2022/07/11 06:23:11;;;;;;;;;;;17.80;77.60;;;;;;5015737;28;19916;-80
2022/07/11 06:25:37;;;;;;;;;;;17.80;77.40;;;;;;5023743;28;19967;-82
2022/07/11 06:28:03;;;;;;;;;;;17.90;77.40;;;;;;5020338;28;20631;-81
2022/07/11 06:30:30;;;;;;;;;;;18.10;75.80;;;;;;5020159;28;19921;-80
2022/07/11 06:32:59;;;;;;;;;;;18.10;74.50;;;;;;5020030;28;19921;-81
2022/07/11 06:35:24;;;;;;;;;;;18.00;73.70;;;;;;5011284;28;19997;-81
2022/07/11 06:37:50;;;;;;;;;;;18.00;74.00;;;;;;5019557;28;19940;-80
2022/07/11 06:40:17;;;;;;;;;;;17.80;74.40;;;;;;5024027;28;20429;-81
2022/07/11 06:42:43;;;;;;;;;;;17.80;74.70;;;;;;5014965;28;20245;-80
2022/07/11 06:45:08;;;;;;;;;;;17.80;74.90;;;;;;5012255;28;19918;-80
2022/07/11 06:47:34;;;;;;;;;;;17.80;75.00;;;;;;5017185;28;19914;-81
2022/07/11 06:49:59;;;;;;;;;;;17.90;75.00;;;;;;5009122;28;19921;-81
2022/07/11 06:52:25;;;;;;;;;;;17.70;75.50;;;;;;5014569;28;19959;-80
2022/07/11 06:54:50;;;;;;;;;;;17.70;75.40;;;;;;5014477;28;20003;-81
2022/07/11 06:57:15;;;;;;;;;;;17.60;75.90;;;;;;5017841;28;19914;-80
2022/07/11 06:59:41;;;;;;;;;;;17.60;76.30;;;;;;5011654;28;19964;-80
2022/07/11 07:02:06;;;;;;;;;;;17.60;76.20;;;;;;5014744;28;19933;-81
2022/07/11 07:04:32;;;;;;;;;;;17.60;76.40;;;;;;5022200;28;19913;-81
2022/07/11 07:06:59;;;;;;;;;;;17.70;76.00;;;;;;5024317;28;20000;-80
2022/07/11 07:09:26;;;;;;;;;;;17.70;75.90;;;;;;5013341;28;20253;-81
2022/07/11 07:11:51;;;;;;;;;;;17.70;76.00;;;;;;5020431;28;19956;-82
2022/07/11 07:14:17;;;;;;;;;;;17.70;76.30;;;;;;5010517;28;20276;-82
2022/07/11 07:16:42;;;;;;;;;;;17.90;75.80;;;;;;5016303;28;20071;-81
2022/07/11 07:19:08;;;;;;;;;;;17.70;76.50;;;;;;5016585;28;19909;-80
2022/07/11 07:21:33;;;;;;;;;;;17.80;76.40;;;;;;5009234;28;20410;-80
2022/07/11 07:23:59;;;;;;;;;;;17.80;76.20;;;;;;5016193;28;19914;-80
2022/07/11 07:26:24;;;;;;;;;;;17.70;76.80;;;;;;5016716;28;20002;-81
2022/07/11 07:28:50;;;;;;;;;;;17.90;76.20;;;;;;5015574;28;19936;-80
2022/07/11 07:31:15;;;;;;;;;;;18.00;76.10;;;;;;5016533;28;20005;-81
2022/07/11 07:33:41;;;;;;;;;;;18.20;75.20;;;;;;5018104;28;20375;-81
2022/07/11 07:36:07;;;;;;;;;;;18.10;75.50;;;;;;5017298;28;20016;-81
2022/07/11 07:38:32;;;;;;;;;;;18.00;76.00;;;;;;5019928;28;19913;-81
2022/07/11 07:40:57;;;;;;;;;;;18.00;76.40;;;;;;5017894;28;20268;-82
2022/07/11 07:43:23;;;;;;;;;;;18.30;75.00;;;;;;5015929;28;20317;-80
2022/07/11 07:45:48;;;;;;;;;;;18.30;75.00;;;;;;5013975;28;20361;-80
2022/07/11 07:48:14;;;;;;;;;;;18.20;75.30;;;;;;5009878;28;20411;-81
2022/07/11 07:50:39;;;;;;;;;;;18.20;75.80;;;;;;5012188;28;19910;-82
2022/07/11 07:53:05;;;;;;;;;;;18.10;76.50;;;;;;5014850;28;19922;-80
2022/07/11 07:55:30;;;;;;;;;;;18.10;76.50;;;;;;5017179;28;19925;-81
2022/07/11 07:57:56;;;;;;;;;;;18.30;76.20;;;;;;5013122;28;19917;-80
2022/07/11 08:03:05;;;;;;;;;;;18.20;76.60;;;;;;5010369;28;19917;-80
2022/07/11 08:05:31;;;;;;;;;;;18.20;76.80;;;;;;5034637;28;19914;-81
2022/07/11 08:07:56;;;;;;;;;;;18.30;76.70;;;;;;5021790;28;19925;-81
2022/07/11 08:10:22;;;;;;;;;;;18.30;76.40;;;;;;5017333;28;19914;-82
2022/07/11 08:12:48;;;;;;;;;;;18.20;77.00;;;;;;5018078;28;19924;-81
2022/07/11 08:15:13;;;;;;;;;;;18.40;77.20;;;;;;5017428;28;19953;-80
2022/07/11 08:17:41;;;;;;;;;;;18.60;76.40;;;;;;5011330;28;19936;-81
2022/07/11 08:20:06;;;;;;;;;;;18.80;75.70;;;;;;5017571;28;19981;-82
2022/07/11 08:22:32;;;;;;;;;;;18.80;75.80;;;;;;5010990;28;19949;-81
2022/07/11 08:24:57;;;;;;;;;;;18.90;75.70;;;;;;5014790;28;19924;-82
2022/07/11 08:27:23;;;;;;;;;;;18.90;76.00;;;;;;5016217;28;19914;-81
2022/07/11 08:29:48;;;;;;;;;;;18.90;76.20;;;;;;5018836;28;19909;-81
2022/07/11 08:32:14;;;;;;;;;;;19.00;76.20;;;;;;5011420;28;19917;-80
2022/07/11 08:34:39;;;;;;;;;;;18.90;76.30;;;;;;5009573;28;20610;-81
2022/07/11 08:37:05;;;;;;;;;;;19.10;75.80;;;;;;5019480;28;19919;-80
2022/07/11 08:39:30;;;;;;;;;;;19.30;74.70;;;;;;5024190;28;19921;-80
2022/07/11 08:41:56;;;;;;;;;;;19.20;74.50;;;;;;5009914;28;19921;-81
2022/07/11 08:44:22;;;;;;;;;;;19.30;74.00;;;;;;5015353;28;19917;-81
2022/07/11 08:46:49;;;;;;;;;;;19.10;75.10;;;;;;5017314;28;20351;-82
2022/07/11 08:49:14;;;;;;;;;;;19.00;75.90;;;;;;5018263;28;19940;-81
2022/07/11 08:51:41;;;;;;;;;;;19.00;76.50;;;;;;5015741;28;19913;-81
2022/07/11 08:54:06;;;;;;;;;;;19.20;75.40;;;;;;5015362;28;19923;-81
2022/07/11 08:56:32;;;;;;;;;;;19.40;74.90;;;;;;5007264;28;19913;-79
2022/07/11 08:59:00;;;;;;;;;;;19.60;74.10;;;;;;5014961;28;19920;-80
2022/07/11 09:01:29;;;;;;;;;;;19.50;74.20;;;;;;5021356;28;19914;-79
2022/07/11 09:03:55;;;;;;;;;;;19.30;74.60;;;;;;5015961;28;19909;-80
2022/07/11 09:06:21;;;;;;;;;;;19.40;74.80;;;;;;5011597;28;20412;-80
2022/07/11 09:08:46;;;;;;;;;;;19.50;74.60;;;;;;5007004;28;19918;-81
2022/07/11 09:11:12;;;;;;;;;;;19.80;73.30;;;;;;5010126;28;20010;-82
2022/07/11 09:13:37;;;;;;;;;;;20.10;71.90;;;;;;5008032;28;19953;-82
2022/07/11 09:16:04;;;;;;;;;;;20.20;72.00;;;;;;5008712;28;19918;-80
2022/07/11 09:18:37;;;;;;;;;;;20.10;71.70;;;;;;5011966;28;19918;-80
2022/07/11 09:26:36;;;;;;;;;;;19.60;73.40;;;;;;5010166;28;20392;-81
2022/07/11 09:29:04;;;;;;;;;;;19.60;73.20;;;;;;5009108;28;20323;-80
2022/07/11 09:31:33;;;;;;;;;;;19.80;73.20;;;;;;5013661;28;20021;-80
2022/07/11 09:34:00;;;;;;;;;;;20.00;72.50;;;;;;5017178;28;19925;-79
2022/07/11 09:36:40;;;;;;;;;;;20.10;71.80;;;;;;5014308;28;19909;-80
2022/07/11 09:39:07;;;;;;;;;;;20.30;70.30;;;;;;5012884;28;19988;-81
2022/07/11 09:41:33;;;;;;;;;;;20.10;70.40;;;;;;5012870;28;20443;-81
2022/07/11 09:44:05;;;;;;;;;;;20.10;71.10;;;;;;5012175;28;20393;-82
2022/07/11 09:46:31;;;;;;;;;;;20.00;71.20;;;;;;5011539;28;19918;-80
2022/07/11 09:48:56;;;;;;;;;;;19.80;71.00;;;;;;5015387;28;20399;-82
2022/07/11 09:51:22;;;;;;;;;;;19.70;71.50;;;;;;5017028;28;19948;-81
2022/07/11 09:53:57;;;;;;;;;;;19.60;72.40;;;;;;5007230;28;19981;-81
2022/07/11 09:56:38;;;;;;;;;;;19.60;70.60;;;;;;5009168;28;19921;-81
2022/07/11 09:59:04;;;;;;;;;;;19.50;71.70;;;;;;5004982;28;19917;-82
2022/07/11 10:01:30;;;;;;;;;;;19.40;72.30;;;;;;5013123;28;19920;-79
2022/07/11 10:03:56;;;;;;;;;;;19.40;72.30;;;;;;5011572;28;20550;-81
2022/07/11 10:06:22;;;;;;;;;;;19.40;72.30;;;;;;5010656;28;20398;-81
2022/07/11 10:08:51;;;;;;;;;;;19.50;71.90;;;;;;5008529;28;19909;-80
2022/07/11 10:11:16;;;;;;;;;;;19.50;72.00;;;;;;5007046;28;20423;-81
2022/07/11 10:13:42;;;;;;;;;;;19.70;71.60;;;;;;5013949;28;19947;-81
2022/07/11 10:16:23;;;;;;;;;;;19.90;71.60;;;;;;5013900;28;19921;-79
2022/07/11 10:19:05;;;;;;;;;;;20.10;69.30;;;;;;4994621;28;19917;-80
2022/07/11 10:21:37;;;;;;;;;;;20.10;69.30;;;;;;5014302;28;19919;-80
2022/07/11 10:24:21;;;;;;;;;;;20.00;69.80;;;;;;5009510;28;19918;-81
2022/07/11 10:26:52;;;;;;;;;;;20.00;71.00;;;;;;5010143;28;19918;-80
2022/07/11 10:29:20;;;;;;;;;;;20.00;71.10;;;;;;5011655;28;19952;-80
2022/07/11 10:32:05;;;;;;;;;;;20.10;70.80;;;;;;5014796;28;20355;-80
2022/07/11 10:34:30;;;;;;;;;;;20.10;70.90;;;;;;5012928;28;19945;-80
2022/07/11 10:36:58;;;;;;;;;;;20.20;70.70;;;;;;5012388;28;20471;-81
2022/07/11 10:39:27;;;;;;;;;;;20.10;70.90;;;;;;5015065;28;19917;-82
2022/07/11 10:41:56;;;;;;;;;;;20.10;70.90;;;;;;5012592;28;19932;-79
2022/07/11 10:44:21;;;;;;;;;;;20.00;71.50;;;;;;5012395;28;19996;-79
2022/07/11 10:46:49;;;;;;;;;;;19.90;71.20;;;;;;5028731;28;21303;-80
2022/07/11 10:49:14;;;;;;;;;;;19.90;71.10;;;;;;5013217;28;19987;-78
2022/07/11 10:51:40;;;;;;;;;;;19.90;71.50;;;;;;5004698;28;19914;-79
2022/07/11 10:54:17;;;;;;;;;;;19.80;71.60;;;;;;5007062;28;19991;-79
2022/07/11 10:56:48;;;;;;;;;;;19.60;72.40;;;;;;5004095;28;19933;-79
2022/07/11 10:59:15;;;;;;;;;;;19.70;72.50;;;;;;5004044;28;19918;-79
2022/07/11 11:01:59;;;;;;;;;;;19.70;72.70;;;;;;5012294;28;19913;-80
2022/07/11 11:04:44;;;;;;;;;;;19.80;72.50;;;;;;5012927;28;19918;-80
2022/07/11 11:07:28;;;;;;;;;;;19.60;72.70;;;;;;5015733;28;20306;-78
2022/07/11 11:09:54;;;;;;;;;;;19.70;72.20;;;;;;5008950;28;19955;-79
2022/07/11 11:12:20;;;;;;;;;;;19.60;72.70;;;;;;5004564;28;20000;-78
2022/07/11 11:14:45;;;;;;;;;;;19.70;72.10;;;;;;5013956;28;20033;-78
2022/07/11 11:17:29;;;;;;;;;;;19.80;71.80;;;;;;5013924;28;19984;-79
2022/07/11 11:19:55;;;;;;;;;;;19.60;72.80;;;;;;5002330;28;20014;-78
2022/07/11 11:22:22;;;;;;;;;;;19.80;72.10;;;;;;5010995;28;19914;-79
2022/07/11 11:24:49;;;;;;;;;;;19.60;72.20;;;;;;5011477;28;19913;-77
2022/07/11 11:27:22;;;;;;;;;;;19.60;72.30;;;;;;5012812;28;20000;-77
2022/07/11 11:29:49;;;;;;;;;;;19.60;72.20;;;;;;5009291;28;20008;-78
2022/07/11 11:32:14;;;;;;;;;;;19.70;73.00;;;;;;5014103;28;20549;-77
2022/07/11 11:34:43;;;;;;;;;;;19.90;72.30;;;;;;5009753;28;20012;-79
2022/07/11 11:37:08;;;;;;;;;;;20.20;71.10;;;;;;5003284;28;19924;-79
2022/07/11 11:39:35;;;;;;;;;;;20.60;69.30;;;;;;5014950;28;19917;-79
2022/07/11 11:42:10;;;;;;;;;;;20.80;69.10;;;;;;5006443;28;20499;-80
2022/07/11 11:44:48;;;;;;;;;;;21.10;69.00;;;;;;5010509;28;19921;-77
2022/07/11 11:47:13;;;;;;;;;;;21.20;68.70;;;;;;5012989;28;19914;-77
2022/07/11 11:49:45;;;;;;;;;;;21.50;66.40;;;;;;5009372;28;19980;-80
2022/07/11 11:52:11;;;;;;;;;;;21.80;66.10;;;;;;5012661;28;19913;-79
2022/07/11 11:54:39;;;;;;;;;;;21.90;65.00;;;;;;5010919;28;19922;-79
2022/07/11 11:57:11;;;;;;;;;;;21.80;65.40;;;;;;5017123;28;19928;-79
2022/07/11 11:59:37;;;;;;;;;;;21.60;65.80;;;;;;5012710;28;20346;-79
2022/07/11 12:02:02;;;;;;;;;;;21.80;66.40;;;;;;5014367;28;19941;-79
2022/07/11 12:04:32;;;;;;;;;;;22.00;65.20;;;;;;5012576;28;19936;-79
2022/07/11 12:06:58;;;;;;;;;;;22.30;64.30;;;;;;5000901;28;19929;-79
2022/07/11 12:14:52;;;;;;;;;;;22.20;63.40;;;;;;5009343;28;19928;-79
2022/07/11 12:17:29;;;;;;;;;;;22.10;64.00;;;;;;5008996;28;19910;-80
2022/07/11 12:19:54;;;;;;;;;;;22.00;63.90;;;;;;5013269;28;20392;-79
2022/07/11 12:22:20;;;;;;;;;;;22.00;65.20;;;;;;5010001;28;20004;-79
2022/07/11 12:24:47;;;;;;;;;;;21.80;64.60;;;;;;5012085;28;20016;-79
2022/07/11 12:27:16;;;;;;;;;;;21.80;65.30;;;;;;5011691;28;19909;-79
2022/07/11 12:29:44;;;;;;;;;;;21.80;65.30;;;;;;5012967;28;19916;-79
2022/07/11 12:32:13;;;;;;;;;;;22.00;65.20;;;;;;5012151;28;20004;-79
2022/07/11 12:34:38;;;;;;;;;;;22.10;64.10;;;;;;5012302;28;19996;-79
2022/07/11 12:37:10;;;;;;;;;;;22.00;65.20;;;;;;5012588;28;20000;-79
2022/07/11 12:39:40;;;;;;;;;;;22.00;65.40;;;;;;5011514;28;20008;-79
2022/07/11 12:42:21;;;;;;;;;;;21.90;65.50;;;;;;5010500;28;19914;-79
2022/07/11 12:45:07;;;;;;;;;;;21.70;65.50;;;;;;5011820;28;19921;-79
2022/07/11 12:47:33;;;;;;;;;;;21.90;64.90;;;;;;5022203;28;19975;-79
2022/07/11 12:49:59;;;;;;;;;;;21.90;65.30;;;;;;5031178;28;20396;-79
2022/07/11 12:52:35;;;;;;;;;;;21.80;65.40;;;;;;5012618;28;19913;-78
2022/07/11 12:55:01;;;;;;;;;;;21.80;65.60;;;;;;5013077;28;20564;-79
2022/07/11 12:57:26;;;;;;;;;;;22.00;65.00;;;;;;5012009;28;19913;-79
2022/07/11 12:59:52;;;;;;;;;;;22.10;64.20;;;;;;5012281;28;19967;-79
2022/07/11 13:02:17;;;;;;;;;;;22.10;64.80;;;;;;5013544;28;19920;-80
2022/07/11 13:04:48;;;;;;;;;;;22.20;63.50;;;;;;5013804;28;19909;-80
2022/07/11 13:10:08;;;;;;;;;;;22.80;61.40;;;;;;5006390;28;19929;-80
2022/07/11 13:12:33;;;;;;;;;;;22.70;62.00;;;;;;5006357;28;19914;-80
2022/07/11 13:15:10;;;;;;;;;;;22.50;62.40;;;;;;5014426;28;19932;-80
2022/07/11 13:17:39;;;;;;;;;;;22.30;63.40;;;;;;5009976;28;19978;-80
2022/07/11 13:20:06;;;;;;;;;;;22.30;62.70;;;;;;5005897;28;20879;-80
2022/07/11 13:22:32;;;;;;;;;;;22.10;64.30;;;;;;5007465;28;19956;-81
2022/07/11 13:24:57;;;;;;;;;;;22.20;64.30;;;;;;5006044;28;20596;-79
2022/07/11 13:27:22;;;;;;;;;;;22.30;63.80;;;;;;5003336;28;19935;-79
2022/07/11 13:29:48;;;;;;;;;;;22.10;64.00;;;;;;5003636;28;20028;-79
2022/07/11 13:32:13;;;;;;;;;;;21.80;64.80;;;;;;5003045;28;20490;-80
2022/07/11 13:34:39;;;;;;;;;;;21.70;65.60;;;;;;5000755;28;20000;-77
2022/07/11 13:37:04;;;;;;;;;;;21.60;65.60;;;;;;5000469;28;19913;-79
2022/07/11 13:39:30;;;;;;;;;;;21.60;66.00;;;;;;5001922;28;20570;-81
2022/07/11 13:41:55;;;;;;;;;;;21.90;64.70;;;;;;5002826;28;19956;-80
2022/07/11 13:44:21;;;;;;;;;;;22.20;64.20;;;;;;5006338;28;19968;-79
2022/07/11 13:46:46;;;;;;;;;;;22.40;63.90;;;;;;4988996;28;19928;-77
2022/07/11 13:49:13;;;;;;;;;;;22.80;63.00;;;;;;4992887;28;19921;-79
2022/07/11 13:51:39;;;;;;;;;;;23.00;62.00;;;;;;4987700;28;19944;-79
2022/07/11 13:54:04;;;;;;;;;;;23.00;60.70;;;;;;5000152;28;19918;-79
2022/07/11 13:56:29;;;;;;;;;;;22.80;61.70;;;;;;5015264;28;19965;-79
2022/07/11 13:58:55;;;;;;;;;;;22.80;62.00;;;;;;5015028;28;19918;-79
2022/07/11 14:01:20;;;;;;;;;;;22.90;62.70;;;;;;5014757;28;19914;-79
2022/07/11 14:03:46;;;;;;;;;;;22.80;62.30;;;;;;5007532;28;20276;-79
2022/07/11 14:06:11;;;;;;;;;;;22.90;62.20;;;;;;5016749;28;20335;-79
2022/07/11 14:08:37;;;;;;;;;;;22.90;61.80;;;;;;5013222;28;19948;-80
2022/07/11 14:11:02;;;;;;;;;;;22.80;61.70;;;;;;5016255;28;19913;-82
2022/07/11 14:13:28;;;;;;;;;;;22.60;62.80;;;;;;5017268;28;19967;-78
2022/07/11 14:15:53;;;;;;;;;;;22.60;62.70;;;;;;5015516;28;19952;-79
2022/07/11 14:18:19;;;;;;;;;;;22.50;63.40;;;;;;5014451;28;19921;-79
2022/07/11 14:20:44;;;;;;;;;;;22.60;63.20;;;;;;5016170;28;19921;-77
2022/07/11 14:23:10;;;;;;;;;;;22.40;62.90;;;;;;5015417;28;19909;-79
2022/07/11 14:25:35;;;;;;;;;;;22.30;63.70;;;;;;5012986;28;19909;-79
2022/07/11 14:28:01;;;;;;;;;;;22.30;63.70;;;;;;5014141;28;19910;-78
2022/07/11 14:30:27;;;;;;;;;;;22.40;63.50;;;;;;5014970;28;19963;-79
2022/07/11 14:32:52;;;;;;;;;;;22.50;63.50;;;;;;5015246;28;19925;-78
2022/07/11 14:35:18;;;;;;;;;;;22.80;63.40;;;;;;5014671;28;19918;-80